Time;durP1;ratioP1;P1;durP2;ratioP2;P2;SDS_P1;SDS_P2;PMS_P1;PMS_P2;Temp;Humidity;BMP_temperature;BMP_pressure;BME280_temperature;BME280_humidity;BME280_pressure;Samples;Min_cycle;Max_cycle;Signal;HPM_P1;HPM_P2
2022/01/26 00:07:03;;;;;;;57.85;17.30;;;;;;;;;;5030817;28;20080;-73
2022/01/26 00:09:33;;;;;;;59.20;17.50;;;;;;;;;;5030879;28;20059;-73
2022/01/26 00:12:01;;;;;;;64.82;18.10;;;;;;;;;;5038741;28;20048;-73
2022/01/26 00:14:30;;;;;;;63.92;17.73;;;;;;;;;;5037835;28;20135;-73
2022/01/26 00:17:00;;;;;;;56.55;17.63;;;;;;;;;;5040404;28;20123;-73
2022/01/26 00:19:44;;;;;;;58.45;17.92;;;;;;;;;;5022800;28;20128;-73
2022/01/26 00:22:23;;;;;;;56.63;17.52;;;;;;;;;;5032462;28;20103;-73
2022/01/26 00:25:07;;;;;;;66.78;18.77;;;;;;;;;;5039554;28;20103;-73
2022/01/26 00:27:50;;;;;;;61.97;19.02;;;;;;;;;;5042644;28;20135;-73
2022/01/26 00:34:18;;;;;;;73.43;19.38;;;;;;;;;;5024142;28;20075;-73
2022/01/26 00:38:45;;;;;;;58.85;17.33;;;;;;;;;;5026605;28;20204;-73
2022/01/26 00:41:18;;;;;;;56.03;17.20;;;;;;;;;;5033796;28;20077;-73
2022/01/26 00:43:50;;;;;;;58.00;18.35;;;;;;;;;;5033200;28;20144;-73
2022/01/26 00:46:19;;;;;;;62.97;18.25;;;;;;;;;;5030282;28;20080;-73
2022/01/26 00:48:49;;;;;;;49.67;16.40;;;;;;;;;;5028989;28;20050;-73
2022/01/26 00:51:20;;;;;;;58.70;18.02;;;;;;;;;;4974546;28;20152;-73
2022/01/26 00:53:53;;;;;;;54.67;17.43;;;;;;;;;;323635;28;10022710;-73
2022/01/26 00:56:23;;;;;;;56.63;17.77;;;;;;;;;;5041757;28;20045;-73
2022/01/26 00:58:52;;;;;;;52.22;16.92;;;;;;;;;;5039245;28;20059;-73
2022/01/26 01:01:20;;;;;;;60.53;17.38;;;;;;;;;;5029619;28;20049;-73
2022/01/26 01:03:49;;;;;;;58.63;17.65;;;;;;;;;;5029920;28;20053;-73
2022/01/26 01:06:22;;;;;;;58.22;17.73;;;;;;;;;;5035880;28;20089;-73
2022/01/26 01:08:50;;;;;;;56.53;17.17;;;;;;;;;;5034848;28;20485;-73
2022/01/26 01:11:19;;;;;;;54.38;17.27;;;;;;;;;;5034446;28;20148;-73
2022/01/26 01:13:49;;;;;;;48.55;16.40;;;;;;;;;;5033103;28;20472;-73
2022/01/26 01:16:20;;;;;;;50.83;16.00;;;;;;;;;;5031792;28;20097;-73
2022/01/26 01:18:56;;;;;;;52.75;14.65;;;;;;;;;;5045167;28;20075;-73
2022/01/26 01:24:25;;;;;;;53.58;15.05;;;;;;;;;;4929411;28;20868;-73
2022/01/26 01:29:44;;;;;;;55.80;17.00;;;;;;;;;;5033337;28;20052;-73
2022/01/26 01:32:15;;;;;;;52.17;17.40;;;;;;;;;;5032732;28;20132;-73
2022/01/26 01:34:43;;;;;;;56.88;17.23;;;;;;;;;;5033989;28;20144;-73
2022/01/26 01:37:15;;;;;;;60.67;17.08;;;;;;;;;;5038768;28;20076;-73
2022/01/26 01:39:44;;;;;;;54.50;16.35;;;;;;;;;;5039513;28;20156;-73
2022/01/26 01:42:12;;;;;;;63.85;18.00;;;;;;;;;;5030664;28;20081;-73
2022/01/26 01:44:42;;;;;;;55.47;16.33;;;;;;;;;;5029334;28;20053;-73
2022/01/26 01:47:10;;;;;;;61.83;17.65;;;;;;;;;;5034865;28;20140;-73
2022/01/26 01:49:39;;;;;;;49.65;16.13;;;;;;;;;;5044009;28;20075;-73
2022/01/26 01:52:13;;;;;;;64.53;17.35;;;;;;;;;;5039630;28;20059;-73
2022/01/26 01:54:48;;;;;;;66.00;18.25;;;;;;;;;;5035149;28;20048;-73
2022/01/26 01:57:21;;;;;;;53.47;17.33;;;;;;;;;;5030817;28;20484;-73
2022/01/26 01:59:52;;;;;;;64.13;19.10;;;;;;;;;;5028888;28;20052;-73
2022/01/26 02:02:20;;;;;;;65.35;18.50;;;;;;;;;;5026020;28;20471;-73
2022/01/26 02:05:03;;;;;;;59.15;17.55;;;;;;;;;;2106422;28;10023602;-73
2022/01/26 02:07:32;;;;;;;59.42;18.30;;;;;;;;;;3642482;28;10001200;-73
2022/01/26 02:10:02;;;;;;;61.72;17.73;;;;;;;;;;5029755;28;20084;-73
2022/01/26 02:12:32;;;;;;;54.08;16.92;;;;;;;;;;5020822;28;20050;-73
2022/01/26 02:15:09;;;;;;;52.85;15.82;;;;;;;;;;5030115;28;20514;-73
2022/01/26 02:18:00;;;;;;;53.05;15.90;;;;;;;;;;5021209;28;20132;-73
2022/01/26 02:20:56;;;;;;;57.92;17.58;;;;;;;;;;4994097;28;20048;-73
2022/01/26 02:51:36;;;;;;;48.05;15.77;;;;;;;;;;5018871;28;20045;-73
2022/01/26 02:54:37;;;;;;;60.38;18.40;;;;;;;;;;5025390;28;20037;-73
2022/01/26 02:57:26;;;;;;;48.97;16.58;;;;;;;;;;5027734;28;20542;-73
2022/01/26 03:03:13;;;;;;;52.83;16.15;;;;;;;;;;5101906;27;20400;-71
2022/01/26 03:05:48;;;;;;;52.55;16.77;;;;;;;;;;5093929;28;20048;-73
2022/01/26 03:08:25;;;;;;;54.38;17.92;;;;;;;;;;5077564;27;20090;-74
2022/01/26 03:10:56;;;;;;;51.88;17.17;;;;;;;;;;5057977;28;20048;-73
2022/01/26 03:13:29;;;;;;;55.70;18.08;;;;;;;;;;5068757;28;20045;-73
2022/01/26 03:16:01;;;;;;;53.42;15.60;;;;;;;;;;5069672;28;20087;-73
2022/01/26 03:21:20;;;;;;;59.13;17.08;;;;;;;;;;5053387;28;20037;-73
2022/01/26 03:29:40;;;;;;;52.53;15.57;;;;;;;;;;5049821;28;20266;-73
2022/01/26 03:32:48;;;;;;;65.03;18.65;;;;;;;;;;5053696;28;20053;-73
2022/01/26 03:35:28;;;;;;;54.20;16.83;;;;;;;;;;5054559;28;20041;-73
2022/01/26 03:37:57;;;;;;;55.55;15.57;;;;;;;;;;5059661;28;20045;-74
2022/01/26 03:40:31;;;;;;;52.40;16.48;;;;;;;;;;5064298;28;20134;-73
2022/01/26 03:43:00;;;;;;;51.05;17.15;;;;;;;;;;5057674;28;20567;-73
2022/01/26 03:45:28;;;;;;;48.58;15.65;;;;;;;;;;5052606;28;20128;-74
2022/01/26 03:47:57;;;;;;;49.22;15.02;;;;;;;;;;5055471;28;20139;-73
2022/01/26 03:50:27;;;;;;;44.92;14.50;;;;;;;;;;5059201;28;20385;-73
2022/01/26 03:52:55;;;;;;;54.90;17.45;;;;;;;;;;5059201;28;20053;-73
2022/01/26 03:55:24;;;;;;;53.80;16.88;;;;;;;;;;5057014;28;20045;-74
2022/01/26 03:57:52;;;;;;;65.03;16.33;;;;;;;;;;5058686;28;20091;-74
2022/01/26 04:00:21;;;;;;;45.83;15.02;;;;;;;;;;5056400;28;20485;-74
2022/01/26 04:02:49;;;;;;;52.20;16.75;;;;;;;;;;5059972;28;20076;-73
2022/01/26 04:05:17;;;;;;;47.88;15.57;;;;;;;;;;5052108;28;20103;-74
2022/01/26 04:07:47;;;;;;;57.83;16.85;;;;;;;;;;5052288;28;20099;-73
2022/01/26 04:10:23;;;;;;;53.33;17.13;;;;;;;;;;5056710;28;20132;-73
2022/01/26 04:12:52;;;;;;;48.83;16.15;;;;;;;;;;5049981;28;20599;-73
2022/01/26 04:15:26;;;;;;;47.47;14.48;;;;;;;;;;5040490;28;20049;-73
2022/01/26 04:17:55;;;;;;;51.20;15.82;;;;;;;;;;5035653;28;20487;-73
2022/01/26 04:20:27;;;;;;;53.60;16.23;;;;;;;;;;5033713;28;20077;-73
2022/01/26 04:23:08;;;;;;;45.40;15.68;;;;;;;;;;5033289;28;20063;-73
2022/01/26 04:25:39;;;;;;;50.25;16.25;;;;;;;;;;5033904;28;20045;-73
2022/01/26 04:28:11;;;;;;;51.15;17.13;;;;;;;;;;5034003;28;20042;-73
2022/01/26 04:30:41;;;;;;;47.78;16.42;;;;;;;;;;5038497;28;20564;-73
2022/01/26 04:33:09;;;;;;;49.22;16.25;;;;;;;;;;5043697;28;20041;-73
2022/01/26 04:35:41;;;;;;;57.90;16.70;;;;;;;;;;5047747;28;20147;-73
2022/01/26 04:38:20;;;;;;;60.72;17.38;;;;;;;;;;5038060;28;20409;-73
2022/01/26 04:41:00;;;;;;;55.38;16.50;;;;;;;;;;5038183;28;20053;-73
2022/01/26 04:43:32;;;;;;;53.95;17.85;;;;;;;;;;5039927;28;20543;-73
2022/01/26 04:46:01;;;;;;;53.13;16.42;;;;;;;;;;5041504;28;20049;-73
2022/01/26 04:48:29;;;;;;;57.85;18.30;;;;;;;;;;5047071;28;20535;-73
2022/01/26 04:50:57;;;;;;;51.70;16.60;;;;;;;;;;5035857;28;20060;-73
2022/01/26 04:53:27;;;;;;;50.20;17.27;;;;;;;;;;5036275;28;20128;-73
2022/01/26 04:55:55;;;;;;;54.28;16.15;;;;;;;;;;5041059;28;20536;-73
2022/01/26 04:58:24;;;;;;;48.30;16.20;;;;;;;;;;5041896;28;20132;-73
2022/01/26 05:00:52;;;;;;;55.60;16.23;;;;;;;;;;5041766;28;20135;-73
2022/01/26 05:03:20;;;;;;;55.25;16.05;;;;;;;;;;5047113;28;20053;-73
2022/01/26 05:05:49;;;;;;;49.28;17.05;;;;;;;;;;5045018;28;20053;-73
2022/01/26 05:08:17;;;;;;;49.53;15.48;;;;;;;;;;5039072;28;20045;-73
2022/01/26 05:10:46;;;;;;;54.42;18.70;;;;;;;;;;5038905;28;20049;-73
2022/01/26 05:13:16;;;;;;;49.97;16.58;;;;;;;;;;5046804;28;20059;-73
2022/01/26 05:15:44;;;;;;;51.58;16.42;;;;;;;;;;5040829;28;20144;-73
2022/01/26 05:18:13;;;;;;;56.85;18.50;;;;;;;;;;5036688;28;20453;-73
2022/01/26 05:20:51;;;;;;;42.63;13.68;;;;;;;;;;3892011;28;10020749;-73
2022/01/26 05:23:19;;;;;;;61.92;17.25;;;;;;;;;;1732890;28;10002090;-73
2022/01/26 05:25:49;;;;;;;56.30;18.17;;;;;;;;;;5028368;28;20136;-73
2022/01/26 05:28:17;;;;;;;53.83;15.40;;;;;;;;;;5029732;28;20538;-73
2022/01/26 05:30:46;;;;;;;56.30;16.60;;;;;;;;;;5029568;28;20052;-73
2022/01/26 05:33:14;;;;;;;55.53;17.10;;;;;;;;;;5026286;28;20088;-73
2022/01/26 05:35:43;;;;;;;50.80;17.05;;;;;;;;;;5030587;28;20052;-73
2022/01/26 05:38:11;;;;;;;59.90;17.70;;;;;;;;;;5028490;28;20057;-73
2022/01/26 05:40:39;;;;;;;58.45;17.90;;;;;;;;;;5029149;28;20064;-73
2022/01/26 05:43:09;;;;;;;51.80;18.25;;;;;;;;;;5027628;28;20099;-73
2022/01/26 05:45:39;;;;;;;58.58;17.98;;;;;;;;;;5030017;28;20697;-73
2022/01/26 05:48:11;;;;;;;51.65;17.40;;;;;;;;;;5028333;28;20515;-73
2022/01/26 05:50:49;;;;;;;54.80;18.17;;;;;;;;;;5029222;28;20111;-73
2022/01/26 05:53:20;;;;;;;51.28;16.80;;;;;;;;;;5025289;28;20404;-73
2022/01/26 05:55:50;;;;;;;50.90;17.00;;;;;;;;;;5027752;28;20077;-73
2022/01/26 05:58:19;;;;;;;57.58;16.73;;;;;;;;;;5028016;28;20124;-73
2022/01/26 06:00:48;;;;;;;55.47;16.58;;;;;;;;;;5025043;28;20179;-73
2022/01/26 06:03:16;;;;;;;56.10;17.48;;;;;;;;;;5024945;28;20049;-72
2022/01/26 06:05:44;;;;;;;59.13;17.92;;;;;;;;;;5026157;28;20050;-72
2022/01/26 06:08:13;;;;;;;45.70;16.45;;;;;;;;;;5026339;28;20497;-72
2022/01/26 06:10:44;;;;;;;48.60;16.35;;;;;;;;;;3654083;28;10020763;-72
2022/01/26 06:13:13;;;;;;;49.40;15.68;;;;;;;;;;1732208;28;10002039;-72
2022/01/26 06:15:44;;;;;;;55.75;15.80;;;;;;;;;;5023185;28;20045;-73
2022/01/26 06:18:13;;;;;;;46.28;15.43;;;;;;;;;;5025478;28;20124;-72
2022/01/26 06:20:41;;;;;;;49.85;15.82;;;;;;;;;;5023073;28;20049;-77
2022/01/26 06:23:09;;;;;;;47.28;15.43;;;;;;;;;;5021821;28;20156;-73
2022/01/26 06:25:38;;;;;;;38.40;13.27;;;;;;;;;;5024544;28;20041;-73
2022/01/26 06:28:11;;;;;;;48.03;14.80;;;;;;;;;;5024073;28;20069;-72
2022/01/26 06:30:39;;;;;;;44.55;15.60;;;;;;;;;;5023901;28;20084;-72
2022/01/26 06:33:09;;;;;;;48.17;16.08;;;;;;;;;;5023720;28;20057;-73
2022/01/26 06:35:39;;;;;;;42.53;15.45;;;;;;;;;;5025915;28;20123;-73
2022/01/26 06:38:07;;;;;;;45.42;15.98;;;;;;;;;;5025354;28;20128;-73
2022/01/26 06:40:35;;;;;;;43.47;15.88;;;;;;;;;;5024069;28;20124;-73
2022/01/26 06:43:10;;;;;;;47.17;15.63;;;;;;;;;;5024694;28;20057;-73
2022/01/26 06:45:44;;;;;;;46.95;15.00;;;;;;;;;;5024046;28;20171;-73
2022/01/26 06:50:59;;;;;;;44.00;14.32;;;;;;;;;;5015679;28;20548;-73
2022/01/26 06:53:27;;;;;;;46.60;13.43;;;;;;;;;;5023867;28;20527;-73
2022/01/26 06:55:56;;;;;;;45.75;14.32;;;;;;;;;;5016846;28;20063;-73
2022/01/26 06:58:25;;;;;;;37.83;12.80;;;;;;;;;;5025550;28;20607;-73
2022/01/26 07:00:53;;;;;;;43.15;14.85;;;;;;;;;;5020551;28;20049;-73
2022/01/26 07:03:23;;;;;;;41.00;12.70;;;;;;;;;;5025740;28;20145;-73
2022/01/26 07:05:51;;;;;;;40.47;13.63;;;;;;;;;;5026009;28;20045;-73
2022/01/26 07:08:20;;;;;;;36.45;12.70;;;;;;;;;;5023199;28;20069;-73
2022/01/26 07:10:51;;;;;;;38.92;13.60;;;;;;;;;;5022130;28;20111;-73
2022/01/26 07:13:19;;;;;;;35.72;12.70;;;;;;;;;;5025211;28;20052;-73
2022/01/26 07:21:28;;;;;;;32.13;11.65;;;;;;;;;;5028710;28;20073;-73
2022/01/26 07:23:57;;;;;;;33.22;12.13;;;;;;;;;;5027164;28;20049;-73
2022/01/26 07:26:28;;;;;;;37.67;11.27;;;;;;;;;;5028671;28;20052;-73
2022/01/26 07:28:57;;;;;;;26.15;10.65;;;;;;;;;;5026773;28;20115;-73
2022/01/26 07:31:26;;;;;;;30.67;10.70;;;;;;;;;;5023266;28;20537;-73
2022/01/26 07:33:57;;;;;;;27.92;11.18;;;;;;;;;;5021145;28;20077;-73
2022/01/26 07:36:26;;;;;;;31.30;11.02;;;;;;;;;;5024922;28;20136;-73
2022/01/26 07:39:04;;;;;;;25.67;9.65;;;;;;;;;;5028133;28;20372;-73
2022/01/26 07:41:33;;;;;;;33.53;10.93;;;;;;;;;;5025243;28;20045;-72
2022/01/26 07:44:01;;;;;;;27.75;9.50;;;;;;;;;;5025388;28;20053;-72
2022/01/26 07:46:30;;;;;;;39.08;13.25;;;;;;;;;;5028200;28;20041;-72
2022/01/26 07:49:00;;;;;;;40.05;12.82;;;;;;;;;;5029642;28;20053;-72
2022/01/26 07:51:28;;;;;;;47.13;13.68;;;;;;;;;;5031810;28;20049;-72
2022/01/26 07:53:57;;;;;;;46.60;14.45;;;;;;;;;;5032125;28;20689;-72
2022/01/26 07:56:26;;;;;;;45.65;14.88;;;;;;;;;;5032145;28;20184;-72
2022/01/26 07:58:56;;;;;;;37.72;14.93;;;;;;;;;;5024074;28;20045;-72
2022/01/26 08:01:24;;;;;;;37.08;13.38;;;;;;;;;;5031999;28;20054;-72
2022/01/26 08:03:53;;;;;;;33.88;12.32;;;;;;;;;;5032276;28;20056;-72
2022/01/26 08:06:24;;;;;;;34.38;12.85;;;;;;;;;;5032591;28;20052;-72
2022/01/26 08:08:53;;;;;;;41.80;14.25;;;;;;;;;;5032172;28;20057;-73
2022/01/26 08:11:21;;;;;;;38.08;14.50;;;;;;;;;;5030212;28;20595;-72
2022/01/26 08:13:50;;;;;;;38.25;13.18;;;;;;;;;;5031178;28;20475;-72
2022/01/26 08:16:18;;;;;;;36.53;13.60;;;;;;;;;;5032484;28;20386;-73
2022/01/26 08:18:47;;;;;;;47.30;14.73;;;;;;;;;;5031253;28;20160;-73
2022/01/26 08:21:16;;;;;;;38.33;13.65;;;;;;;;;;5032096;28;20050;-73
2022/01/26 08:23:47;;;;;;;45.90;13.93;;;;;;;;;;5029975;28;20085;-74
2022/01/26 08:26:19;;;;;;;39.72;12.43;;;;;;;;;;5031764;28;20097;-73
2022/01/26 08:28:53;;;;;;;42.55;13.90;;;;;;;;;;5031263;28;20041;-73
2022/01/26 08:31:21;;;;;;;33.35;13.93;;;;;;;;;;5031433;28;20041;-73
2022/01/26 08:33:50;;;;;;;41.22;13.50;;;;;;;;;;5031582;28;20136;-73
2022/01/26 08:36:19;;;;;;;32.55;13.52;;;;;;;;;;5032829;28;20096;-73
2022/01/26 08:38:49;;;;;;;38.65;13.65;;;;;;;;;;5027545;28;20077;-73
2022/01/26 08:41:17;;;;;;;33.50;12.75;;;;;;;;;;5026283;28;20076;-73
2022/01/26 08:43:46;;;;;;;37.45;13.23;;;;;;;;;;5029929;28;20045;-73
2022/01/26 08:46:14;;;;;;;39.42;13.57;;;;;;;;;;5024343;28;20057;-73
2022/01/26 08:48:43;;;;;;;34.38;12.02;;;;;;;;;;5026583;28;20050;-73
2022/01/26 08:51:18;;;;;;;35.30;13.55;;;;;;;;;;5031967;28;20072;-73
2022/01/26 08:53:49;;;;;;;41.80;14.70;;;;;;;;;;5031745;28;20056;-73
2022/01/26 08:56:19;;;;;;;33.58;12.40;;;;;;;;;;5034536;28;20297;-73
2022/01/26 08:58:47;;;;;;;37.00;13.07;;;;;;;;;;5031313;28;20055;-73
2022/01/26 09:01:16;;;;;;;36.70;12.55;;;;;;;;;;5027839;28;20151;-73
2022/01/26 09:03:45;;;;;;;34.33;14.27;;;;;;;;;;5028593;28;20045;-73
2022/01/26 09:06:17;;;;;;;39.03;13.13;;;;;;;;;;5030635;28;20056;-73
2022/01/26 09:08:52;;;;;;;39.88;14.93;;;;;;;;;;5029999;28;20053;-73
2022/01/26 09:11:22;;;;;;;44.63;14.65;;;;;;;;;;5030837;28;20140;-73
2022/01/26 09:13:58;;;;;;;35.35;14.07;;;;;;;;;;5027101;28;20064;-72
2022/01/26 09:16:29;;;;;;;36.42;13.80;;;;;;;;;;5030348;28;20041;-72
2022/01/26 09:19:05;;;;;;;39.15;14.27;;;;;;;;;;5030324;28;20085;-72
2022/01/26 09:21:35;;;;;;;47.42;13.68;;;;;;;;;;5028041;28;20045;-72
2022/01/26 09:24:04;;;;;;;37.83;13.38;;;;;;;;;;5028299;28;20060;-72
2022/01/26 09:26:34;;;;;;;40.78;12.77;;;;;;;;;;5030991;28;20045;-73
2022/01/26 09:29:03;;;;;;;35.33;13.23;;;;;;;;;;5028598;28;20042;-73
2022/01/26 09:31:31;;;;;;;41.10;14.32;;;;;;;;;;5030786;28;20045;-73
2022/01/26 09:34:00;;;;;;;33.28;12.45;;;;;;;;;;5023034;28;20050;-73
2022/01/26 09:36:34;;;;;;;34.05;12.50;;;;;;;;;;3676668;28;10020760;-74
2022/01/26 09:39:02;;;;;;;36.63;12.60;;;;;;;;;;1746514;28;10002178;-73
2022/01/26 09:41:31;;;;;;;35.88;13.23;;;;;;;;;;5043572;28;20095;-72
2022/01/26 09:44:03;;;;;;;36.95;13.82;;;;;;;;;;5030368;28;20041;-72
2022/01/26 09:46:32;;;;;;;34.65;13.60;;;;;;;;;;5032265;28;20100;-72
2022/01/26 09:49:02;;;;;;;37.15;12.27;;;;;;;;;;5028582;28;20050;-72
2022/01/26 09:51:33;;;;;;;36.25;12.55;;;;;;;;;;5029545;28;20045;-72
2022/01/26 09:54:02;;;;;;;32.22;13.40;;;;;;;;;;5029768;28;20048;-72
2022/01/26 09:56:32;;;;;;;30.30;12.20;;;;;;;;;;5028594;28;20504;-72
2022/01/26 09:59:02;;;;;;;36.63;12.13;;;;;;;;;;5028297;28;20045;-72
2022/01/26 10:01:40;;;;;;;33.22;13.52;;;;;;;;;;5027469;28;20055;-72
2022/01/26 10:04:20;;;;;;;40.22;13.00;;;;;;;;;;5028985;28;20079;-72
2022/01/26 10:07:00;;;;;;;31.00;12.02;;;;;;;;;;5025988;28;20045;-72
2022/01/26 10:17:48;;;;;;;33.65;12.43;;;;;;;;;;5029381;28;20505;-72
2022/01/26 10:20:18;;;;;;;35.72;13.65;;;;;;;;;;5026549;28;20132;-72
2022/01/26 10:22:47;;;;;;;37.80;13.27;;;;;;;;;;5027159;28;20124;-72
2022/01/26 10:25:17;;;;;;;31.67;12.40;;;;;;;;;;5025418;28;20099;-72
2022/01/26 10:28:09;;;;;;;35.42;13.88;;;;;;;;;;5028884;28;20131;-72
2022/01/26 10:30:44;;;;;;;32.90;12.10;;;;;;;;;;5029677;28;20065;-72
2022/01/26 10:33:14;;;;;;;37.90;12.63;;;;;;;;;;5026008;28;20064;-72
2022/01/26 10:35:43;;;;;;;34.70;12.30;;;;;;;;;;5028127;28;20045;-72
2022/01/26 10:38:12;;;;;;;32.53;12.88;;;;;;;;;;5022207;28;20077;-73
2022/01/26 10:40:41;;;;;;;32.95;13.15;;;;;;;;;;5023106;28;20749;-72
2022/01/26 10:43:11;;;;;;;37.42;14.05;;;;;;;;;;5030316;28;20057;-73
2022/01/26 10:45:57;;;;;;;39.55;13.52;;;;;;;;;;5027396;28;20052;-73
2022/01/26 10:48:30;;;;;;;27.63;12.40;;;;;;;;;;5029191;28;20056;-73
2022/01/26 10:54:09;;;;;;;40.13;13.32;;;;;;;;;;5029572;28;20511;-73
2022/01/26 10:56:49;;;;;;;25.98;11.13;;;;;;;;;;3040262;28;10002006;-73
2022/01/26 10:59:18;;;;;;;40.00;13.52;;;;;;;;;;2946773;28;10001621;-73
2022/01/26 11:01:48;;;;;;;38.05;12.85;;;;;;;;;;5018974;28;20518;-73
2022/01/26 11:04:17;;;;;;;27.52;11.85;;;;;;;;;;5028718;28;20041;-73
2022/01/26 11:06:50;;;;;;;42.10;14.32;;;;;;;;;;5029136;28;20046;-73
2022/01/26 11:09:21;;;;;;;35.75;14.32;;;;;;;;;;5027541;28;20532;-73
2022/01/26 11:11:59;;;;;;;35.58;13.80;;;;;;;;;;5025691;28;20492;-73
2022/01/26 11:14:38;;;;;;;39.88;14.38;;;;;;;;;;5025716;28;20049;-72
2022/01/26 11:17:08;;;;;;;46.88;14.82;;;;;;;;;;5029044;28;20056;-72
2022/01/26 11:19:41;;;;;;;35.00;13.82;;;;;;;;;;5028118;28;20076;-72
2022/01/26 11:22:11;;;;;;;34.35;12.55;;;;;;;;;;5020666;28;20473;-72
2022/01/26 11:24:52;;;;;;;35.97;12.88;;;;;;;;;;5024958;28;20524;-72
2022/01/26 11:27:21;;;;;;;38.63;14.00;;;;;;;;;;5036165;28;20468;-72
2022/01/26 11:29:54;;;;;;;31.60;12.10;;;;;;;;;;5035227;28;20058;-72
2022/01/26 11:32:29;;;;;;;32.30;12.98;;;;;;;;;;5032470;28;20057;-72
2022/01/26 11:34:58;;;;;;;32.58;12.40;;;;;;;;;;5032698;28;20076;-72
2022/01/26 11:37:34;;;;;;;34.25;12.13;;;;;;;;;;5028234;28;20057;-72
2022/01/26 11:45:35;;;;;;;33.63;12.13;;;;;;;;;;5030880;28;20055;-72
2022/01/26 11:48:08;;;;;;;39.85;13.82;;;;;;;;;;5031426;28;20041;-72
2022/01/26 11:50:37;;;;;;;39.20;12.90;;;;;;;;;;5032956;28;20510;-72
2022/01/26 11:53:06;;;;;;;40.15;13.15;;;;;;;;;;5031243;28;20111;-72
2022/01/26 11:55:40;;;;;;;41.55;13.85;;;;;;;;;;5025286;28;20375;-72
2022/01/26 11:58:16;;;;;;;41.38;14.57;;;;;;;;;;5032248;28;20060;-72
2022/01/26 12:00:52;;;;;;;37.58;13.52;;;;;;;;;;5032259;28;20053;-72
2022/01/26 12:03:23;;;;;;;29.20;12.50;;;;;;;;;;4993230;28;20045;-73
2022/01/26 12:05:56;;;;;;;24.62;9.90;;;;;;;;;;316184;28;10022630;-72
2022/01/26 12:08:28;;;;;;;45.20;15.40;;;;;;;;;;5029495;28;20053;-73
2022/01/26 12:10:57;;;;;;;31.27;12.23;;;;;;;;;;5030637;28;20592;-71
2022/01/26 12:13:26;;;;;;;34.75;12.85;;;;;;;;;;5031307;28;20405;-72
2022/01/26 12:16:01;;;;;;;38.63;13.90;;;;;;;;;;5029355;28;20068;-72
2022/01/26 12:18:33;;;;;;;;;;;;;;;;;;5027197;28;20041;-71
2022/01/26 12:32:36;;;;;;;33.90;13.55;;;;;;;;;;5030280;28;20471;-71
2022/01/26 12:35:14;;;;;;;39.22;14.95;;;;;;;;;;5029724;28;20056;-72
2022/01/26 12:37:55;;;;;;;39.78;14.15;;;;;;;;;;5030311;28;20054;-72
2022/01/26 12:43:18;;;;;;;33.80;13.05;;;;;;;;;;5031077;28;20123;-71
2022/01/26 12:45:57;;;;;;;36.75;14.90;;;;;;;;;;5025825;28;20045;-71
2022/01/26 12:48:26;;;;;;;38.70;14.70;;;;;;;;;;5027943;28;20053;-71
2022/01/26 12:50:55;;;;;;;34.85;14.10;;;;;;;;;;5030801;28;20045;-72
2022/01/26 12:53:26;;;;;;;42.25;16.20;;;;;;;;;;5024928;28;20136;-71
2022/01/26 12:55:57;;;;;;;39.45;14.93;;;;;;;;;;5029752;28;20049;-71
2022/01/26 12:58:26;;;;;;;39.00;14.50;;;;;;;;;;5025481;28;20049;-71
2022/01/26 13:01:00;;;;;;;49.65;15.70;;;;;;;;;;5023344;28;21304;-71
2022/01/26 13:03:31;;;;;;;36.03;14.50;;;;;;;;;;5026625;28;20123;-71
2022/01/26 13:06:13;;;;;;;38.22;14.65;;;;;;;;;;5022747;28;20053;-71
2022/01/26 13:08:44;;;;;;;34.72;13.93;;;;;;;;;;5029221;28;20053;-71
2022/01/26 13:11:23;;;;;;;35.63;13.52;;;;;;;;;;5029607;28;20103;-71
2022/01/26 13:13:52;;;;;;;34.67;12.75;;;;;;;;;;5020241;28;20053;-71
2022/01/26 13:16:25;;;;;;;37.55;14.65;;;;;;;;;;5025926;28;20412;-73
2022/01/26 13:22:02;;;;;;;45.40;15.18;;;;;;;;;;5024838;28;20049;-73
2022/01/26 13:24:53;;;;;;;36.92;14.38;;;;;;;;;;5027345;28;20102;-72
2022/01/26 13:27:34;;;;;;;37.72;13.98;;;;;;;;;;5018295;28;20045;-72
2022/01/26 13:30:18;;;;;;;34.72;12.85;;;;;;;;;;5029842;28;20041;-71
2022/01/26 13:33:12;;;;;;;41.47;14.23;;;;;;;;;;5030035;28;20544;-71
2022/01/26 13:35:51;;;;;;;30.52;12.90;;;;;;;;;;5025534;28;20404;-72
2022/01/26 13:38:32;;;;;;;33.13;13.40;;;;;;;;;;5046175;28;20052;-71
2022/01/26 13:41:17;;;;;;;33.13;13.05;;;;;;;;;;5049093;28;20055;-71
2022/01/26 13:49:48;;;;;;;41.45;16.20;;;;;;;;;;5040718;28;20423;-71
2022/01/26 13:52:25;;;;;;;46.38;16.83;;;;;;;;;;5048289;28;20044;-71
2022/01/26 13:55:14;;;;;;;47.13;15.80;;;;;;;;;;5044129;28;20045;-71
2022/01/26 13:57:52;;;;;;;44.05;16.73;;;;;;;;;;5041161;28;20057;-72
2022/01/26 14:00:23;;;;;;;46.15;16.58;;;;;;;;;;5047758;28;20195;-72
2022/01/26 14:02:57;;;;;;;43.15;14.85;;;;;;;;;;5042573;28;20076;-71
2022/01/26 14:05:26;;;;;;;39.08;14.93;;;;;;;;;;5048329;28;20076;-72
2022/01/26 14:07:56;;;;;;;41.38;14.45;;;;;;;;;;5042580;28;20378;-71
2022/01/26 14:10:25;;;;;;;42.30;15.55;;;;;;;;;;5047958;28;20045;-71
2022/01/26 14:13:10;;;;;;;34.22;11.78;;;;;;;;;;1844533;28;10022712;-71
2022/01/26 14:15:44;;;;;;;41.08;14.52;;;;;;;;;;3999252;28;10001449;-72
2022/01/26 14:18:39;;;;;;;41.08;15.27;;;;;;;;;;5049969;28;20089;-71
2022/01/26 14:26:48;;;;;;;43.23;15.40;;;;;;;;;;5047564;28;20439;-71
2022/01/26 14:29:27;;;;;;;38.25;15.50;;;;;;;;;;5062658;28;20404;-72
2022/01/26 14:32:09;;;;;;;46.75;15.27;;;;;;;;;;5068174;28;20412;-71
2022/01/26 14:35:06;;;;;;;44.42;16.08;;;;;;;;;;5084296;28;20470;-71
2022/01/26 14:40:51;;;;;;;40.20;15.13;;;;;;;;;;5019148;28;20120;-71
2022/01/26 15:00:38;;;;;;;44.30;16.77;;;;;;;;;;5062351;28;20423;-72
2022/01/26 15:09:06;;;;;;;42.15;15.68;;;;;;;;;;5068246;28;20057;-72
2022/01/26 15:34:45;;;;;;;40.67;14.02;;;;;;;;;;5065170;28;20056;-70
2022/01/26 15:40:22;;;;;;;41.17;14.10;;;;;;;;;;5066548;28;20066;-70
2022/01/26 15:52:13;;;;;;;45.38;16.45;;;;;;;;;;5057209;28;20045;-71
2022/01/26 15:57:56;;;;;;;48.03;15.48;;;;;;;;;;5066673;28;20135;-71
2022/01/26 16:18:08;;;;;;;39.63;13.63;;;;;;;;;;5067881;28;20048;-72
2022/01/26 16:20:43;;;;;;;;;;;;;;;;;;5050131;28;20060;-72
2022/01/26 17:25:41;;;;;;;40.17;14.15;;;;;;;;;;5067642;28;20068;-72
2022/01/26 18:14:45;;;;;;;43.05;15.55;;;;;;;;;;5025678;28;20056;-71
2022/01/26 18:16:40;;;;;;;39.15;14.50;;;;;;;;;;5056673;28;20048;-71
2022/01/26 18:33:02;;;;;;;43.00;14.23;;;;;;;;;;5063552;28;20044;-71
2022/01/26 18:50:07;;;;;;;48.45;15.38;;;;;;;;;;5068572;27;20056;-70
2022/01/26 18:52:38;;;;;;;49.05;14.80;;;;;;;;;;5067597;28;20044;-70
2022/01/26 18:55:11;;;;;;;48.30;15.95;;;;;;;;;;5065152;28;20398;-71
2022/01/26 18:57:40;;;;;;;55.40;16.23;;;;;;;;;;5070454;28;20550;-71
2022/01/26 19:00:10;;;;;;;47.55;15.65;;;;;;;;;;5061637;28;20434;-71
2022/01/26 19:02:39;;;;;;;51.15;16.00;;;;;;;;;;5053727;28;20128;-71
2022/01/26 19:05:10;;;;;;;54.45;16.30;;;;;;;;;;5042941;28;20049;-71
2022/01/26 19:07:39;;;;;;;49.30;15.98;;;;;;;;;;5054892;28;20136;-71
2022/01/26 19:10:08;;;;;;;46.97;16.33;;;;;;;;;;5051137;28;20057;-71
2022/01/26 19:12:43;;;;;;;51.90;15.35;;;;;;;;;;5058661;28;20049;-71
2022/01/26 19:15:13;;;;;;;52.72;18.13;;;;;;;;;;5061664;28;20080;-71
2022/01/26 19:17:51;;;;;;;57.75;17.20;;;;;;;;;;5050810;28;20049;-70
2022/01/26 19:20:36;;;;;;;49.63;15.15;;;;;;;;;;5048900;28;20083;-72
2022/01/26 19:23:25;;;;;;;50.40;17.67;;;;;;;;;;5050867;28;20080;-71
2022/01/26 19:25:59;;;;;;;56.33;15.45;;;;;;;;;;5049605;28;20037;-71
2022/01/26 19:28:34;;;;;;;48.13;16.42;;;;;;;;;;5057609;28;20124;-70
2022/01/26 19:45:23;;;;;;;54.00;16.60;;;;;;;;;;5057482;28;20499;-71
2022/01/26 19:50:48;;;;;;;54.05;16.80;;;;;;;;;;5054144;28;20532;-71
2022/01/26 19:53:17;;;;;;;45.92;15.65;;;;;;;;;;5042971;28;20067;-71
2022/01/26 19:55:46;;;;;;;59.80;18.85;;;;;;;;;;5047237;28;20140;-71
2022/01/26 19:58:21;;;;;;;52.22;17.13;;;;;;;;;;5043078;28;20073;-71
2022/01/26 20:00:51;;;;;;;54.80;16.85;;;;;;;;;;5044978;28;20124;-71
2022/01/26 20:03:21;;;;;;;55.63;18.25;;;;;;;;;;4983473;28;20108;-72
2022/01/26 20:05:51;;;;;;;57.47;16.60;;;;;;;;;;317006;28;10022598;-71
2022/01/26 20:08:30;;;;;;;59.00;17.65;;;;;;;;;;5032815;28;20132;-71
2022/01/26 20:11:03;;;;;;;50.20;17.65;;;;;;;;;;5037481;28;20052;-71
2022/01/26 20:13:47;;;;;;;56.05;17.80;;;;;;;;;;5036522;28;20493;-71
2022/01/26 20:16:36;;;;;;;59.50;19.50;;;;;;;;;;5038164;28;20462;-71
2022/01/26 20:19:06;;;;;;;53.17;17.25;;;;;;;;;;5041534;28;20044;-71
2022/01/26 20:21:40;;;;;;;50.80;18.70;;;;;;;;;;5036998;28;20124;-71
2022/01/26 20:24:09;;;;;;;53.88;18.40;;;;;;;;;;5037214;28;20049;-71
2022/01/26 20:26:37;;;;;;;52.38;19.00;;;;;;;;;;5041650;28;20084;-71
2022/01/26 20:29:06;;;;;;;56.00;17.42;;;;;;;;;;5038436;28;20132;-71
2022/01/26 20:31:41;;;;;;;46.97;15.38;;;;;;;;;;5035731;28;20053;-71
2022/01/26 20:34:14;;;;;;;47.85;17.02;;;;;;;;;;5035105;28;20059;-71